CheckWX is a tool to help pilots better visualize weather data.  It is not intended as a substitute for an official pre-flight weather briefing.

18:18:29 UTC

KOXB METAR
Ocean City Municipal Airport
Ocean City, Maryland, USA
Current

25 mins ago

KOXB 121753Z AUTO 34016G27KT 6SM RA BR BKN013 BKN023 OVC060 05/03 A2992 RMK AO2 PK WND 33027/1658 SLP131 P0011 60019 T00500033 10144 20050 51021
Observed
Nov-12 @ 17:53 UTC
Wind
  • 340° at 16 KTS
  • Gusting to 27 KTS
Visibility
6 SM
Flight Rules
MVFR
Conditions
Rain, Mist
Cloud Levels
  • Broken at 1,300' AGL
  • Broken at 2,300' AGL
  • Overcast at 6,000' AGL
Temperature
C / 41°F
Dewpoint
C / 37°F
Humidity
87%
Altimeter
29.92" Hg
Pressure
1013.22 hPa
Current Rain
0.11"
Previous

50 mins ago

KOXB 121728Z AUTO 34012G22KT 6SM RA BR BKN013 BKN019 OVC075 06/04 A2993 RMK AO2 PK WND 33027/1658 P0007 T00560044
Observed
Nov-12 @ 17:28 UTC
Wind
  • 340° at 12 KTS
  • Gusting to 22 KTS
Visibility
6 SM
Flight Rules
MVFR
Conditions
Rain, Mist
Cloud Levels
  • Broken at 1,300' AGL
  • Broken at 1,900' AGL
  • Overcast at 7,500' AGL
Temperature
C / 43°F
Dewpoint
C / 39°F
Humidity
87%
Altimeter
29.93" Hg
Pressure
1013.52 hPa
Current Rain
0.07"
Previous

1 hour ago

KOXB 121653Z AUTO 33017G25KT 8SM RA SCT015 OVC080 07/05 A2990 RMK AO2 PK WND 32026/1643 SLP124 P0006 T00670050
Observed
Nov-12 @ 16:53 UTC
Wind
  • 330° at 17 KTS
  • Gusting to 25 KTS
Visibility
8 SM
Flight Rules
VFR
Conditions
Rain
Cloud Levels
  • Scattered at 1,500' AGL
  • Overcast at 8,000' AGL
Temperature
C / 45°F
Dewpoint
C / 41°F
Humidity
87%
Altimeter
29.9" Hg
Pressure
1012.52 hPa
Current Rain
0.06"